createdAt,value
2019-05-17T00:01:07.636Z,27.20
2019-05-17T00:03:36.822Z,32.90
2019-05-17T00:06:06.713Z,34.73
2019-05-17T00:08:38.567Z,39.50
2019-05-17T00:11:10.734Z,47.30
2019-05-17T00:13:40.028Z,43.10
2019-05-17T00:16:09.186Z,38.60
2019-05-17T00:18:38.257Z,34.53
2019-05-17T00:21:07.680Z,31.50
2019-05-17T00:23:37.494Z,30.93
2019-05-17T00:26:07.637Z,32.17
2019-05-17T00:28:37.483Z,30.47
2019-05-17T00:31:06.787Z,31.90
2019-05-17T00:33:36.705Z,36.07
2019-05-17T00:36:07.016Z,30.73
2019-05-17T00:38:47.594Z,32.10
2019-05-17T00:41:07.158Z,35.30
2019-05-17T00:43:36.888Z,33.60
2019-05-17T00:46:06.743Z,36.83
2019-05-17T00:48:37.209Z,33.23
2019-05-17T00:51:10.159Z,30.80
2019-05-17T00:53:37.103Z,31.03
2019-05-17T00:56:06.643Z,38.97
2019-05-17T00:58:37.057Z,41.03
2019-05-17T01:01:09.676Z,36.73
2019-05-17T01:03:38.602Z,35.43
2019-05-17T01:06:10.434Z,31.97
2019-05-17T01:08:39.425Z,32.13
2019-05-17T01:11:08.428Z,31.17
2019-05-17T01:13:37.634Z,31.37
2019-05-17T01:16:07.373Z,35.40
2019-05-17T01:18:39.876Z,35.57
2019-05-17T01:21:09.279Z,32.57
2019-05-17T01:23:38.278Z,49.20
2019-05-17T01:26:07.667Z,47.57
2019-05-17T01:28:40.499Z,45.80
2019-05-17T01:31:09.436Z,43.20
2019-05-17T01:33:38.458Z,43.03
2019-05-17T01:36:07.502Z,44.97
2019-05-17T01:38:37.680Z,40.63
2019-05-17T01:41:07.154Z,39.10
2019-05-17T01:43:36.743Z,41.13
2019-05-17T01:46:06.740Z,45.73
2019-05-17T01:48:36.557Z,45.73
2019-05-17T01:51:07.627Z,42.30
2019-05-17T01:53:36.555Z,45.13
2019-05-17T01:56:06.423Z,43.40
2019-05-17T01:58:36.480Z,40.80
2019-05-17T02:01:07.701Z,45.70
2019-05-17T02:03:37.535Z,44.77
2019-05-17T02:06:07.476Z,41.57
2019-05-17T02:08:37.361Z,41.40
2019-05-17T02:11:09.486Z,38.80
2019-05-17T02:13:38.367Z,41.47
2019-05-17T02:16:10.778Z,38.87
2019-05-17T02:18:39.738Z,42.27
2019-05-17T02:21:08.705Z,41.50
2019-05-17T02:23:37.604Z,39.73
2019-05-17T02:26:06.884Z,39.33
2019-05-17T02:28:41.330Z,68.83
2019-05-17T02:31:13.304Z,65.93
2019-05-17T02:33:42.993Z,68.73
2019-05-17T02:36:14.138Z,59.50
2019-05-17T02:38:43.600Z,52.63
2019-05-17T02:41:14.778Z,47.97
2019-05-17T02:43:43.733Z,55.07
2019-05-17T02:46:13.618Z,58.27
2019-05-17T02:48:43.044Z,52.93
2019-05-17T02:51:13.121Z,48.30
2019-05-17T02:53:43.099Z,50.73
2019-05-17T02:56:13.316Z,55.30
2019-05-17T02:58:43.870Z,58.57
2019-05-17T03:01:13.264Z,57.67
2019-05-17T03:03:43.638Z,54.47
2019-05-17T03:06:16.475Z,52.13
2019-05-17T03:08:45.349Z,49.83
2019-05-17T03:11:14.301Z,51.30
2019-05-17T03:13:43.633Z,52.13
2019-05-17T03:16:15.074Z,46.60
2019-05-17T03:18:47.132Z,51.10
2019-05-17T03:21:16.198Z,54.60
2019-05-17T03:23:45.192Z,49.67
2019-05-17T03:26:14.116Z,46.83
2019-05-17T03:28:45.450Z,42.67
2019-05-17T03:31:17.029Z,37.80
2019-05-17T03:33:46.590Z,36.20
2019-05-17T03:36:17.336Z,40.20
2019-05-17T03:38:48.009Z,35.40
2019-05-17T03:41:23.837Z,34.00
2019-05-17T03:43:47.839Z,33.23
2019-05-17T03:46:16.826Z,35.30
2019-05-17T03:48:45.734Z,32.47
2019-05-17T03:51:14.986Z,32.80
2019-05-17T03:53:44.644Z,29.40
2019-05-17T03:56:13.727Z,30.97
2019-05-17T03:58:43.411Z,34.10
2019-05-17T04:01:14.009Z,36.87
2019-05-17T04:03:43.648Z,34.97
2019-05-17T04:06:13.264Z,40.27
2019-05-17T04:08:43.126Z,38.97
2019-05-17T04:11:22.270Z,40.23
2019-05-17T04:13:43.132Z,39.73
2019-05-17T04:16:13.899Z,38.77
2019-05-17T04:18:43.668Z,40.47
2019-05-17T04:21:15.726Z,42.17
2019-05-17T04:23:47.620Z,44.90
2019-05-17T04:26:16.741Z,47.97
2019-05-17T04:28:48.637Z,53.30
2019-05-17T04:31:17.615Z,44.57
2019-05-17T04:33:46.577Z,45.37
2019-05-17T04:36:16.604Z,44.10
2019-05-17T04:38:45.554Z,47.50
2019-05-17T04:41:14.490Z,52.63
2019-05-17T04:43:43.530Z,49.17
2019-05-17T04:46:13.161Z,48.67
2019-05-17T04:48:43.796Z,44.77
2019-05-17T04:51:13.409Z,39.13
2019-05-17T04:53:43.108Z,38.20
2019-05-17T04:56:13.967Z,43.20
2019-05-17T04:58:43.432Z,44.10
2019-05-17T05:01:13.189Z,48.90
2019-05-17T05:03:45.640Z,47.37
2019-05-17T05:06:14.544Z,48.60
2019-05-17T05:08:43.805Z,47.43
2019-05-17T05:11:13.058Z,45.93
2019-05-17T05:13:42.655Z,47.40
2019-05-17T05:16:13.527Z,49.93
2019-05-17T05:18:42.266Z,48.50
2019-05-17T05:21:12.213Z,47.97
2019-05-17T05:23:42.462Z,46.90
2019-05-17T05:26:12.056Z,49.13
2019-05-17T05:28:43.330Z,48.13
2019-05-17T05:31:13.265Z,43.23
2019-05-17T05:33:42.347Z,41.90
2019-05-17T05:36:11.466Z,40.77
2019-05-17T05:38:42.219Z,38.13
2019-05-17T05:41:12.216Z,37.23
2019-05-17T05:43:42.001Z,39.57
2019-05-17T05:46:11.747Z,39.83
2019-05-17T05:48:41.604Z,37.47
2019-05-17T05:51:13.403Z,39.10
2019-05-17T05:53:41.888Z,41.23
2019-05-17T05:56:13.331Z,42.43
2019-05-17T05:58:42.826Z,45.23
2019-05-17T06:01:12.771Z,44.77
2019-05-17T06:03:42.169Z,47.57
2019-05-17T06:06:12.369Z,46.53
2019-05-17T06:08:41.610Z,44.97
2019-05-17T06:11:12.273Z,44.60
2019-05-17T06:13:41.866Z,44.07
2019-05-17T06:16:11.983Z,43.63
2019-05-17T06:18:42.510Z,44.40
2019-05-17T06:21:14.778Z,42.53
2019-05-17T06:23:43.699Z,40.30
2019-05-17T06:26:12.727Z,39.80
2019-05-17T06:28:42.499Z,41.47
2019-05-17T06:31:11.652Z,40.37
2019-05-17T06:33:42.164Z,44.17
2019-05-17T06:36:13.484Z,42.00
2019-05-17T06:38:45.607Z,36.67
2019-05-17T06:41:15.606Z,34.10
2019-05-17T06:43:44.860Z,44.70
2019-05-17T06:46:14.157Z,35.23
2019-05-17T06:48:43.103Z,32.80
2019-05-17T06:51:12.088Z,34.23
2019-05-17T06:53:43.384Z,35.40
2019-05-17T06:56:12.829Z,36.13
2019-05-17T06:58:41.959Z,35.43
2019-05-17T07:01:10.884Z,34.53
2019-05-17T07:03:40.036Z,35.53
2019-05-17T07:06:10.952Z,35.67
2019-05-17T07:08:40.258Z,36.00
2019-05-17T07:11:09.781Z,36.53
2019-05-17T07:13:39.542Z,34.80
2019-05-17T07:16:10.217Z,37.07
2019-05-17T07:18:39.987Z,36.10
2019-05-17T07:21:14.813Z,33.80
2019-05-17T07:23:43.736Z,33.00
2019-05-17T07:26:12.685Z,32.30
2019-05-17T07:28:41.631Z,32.13
2019-05-17T07:31:10.541Z,33.33
2019-05-17T07:33:39.948Z,31.83
2019-05-17T07:36:10.202Z,28.90
2019-05-17T07:38:39.772Z,28.30
2019-05-17T07:41:10.085Z,31.93
2019-05-17T07:43:40.697Z,30.97
2019-05-17T07:46:09.771Z,29.50
2019-05-17T07:48:40.582Z,31.20
2019-05-17T07:51:10.075Z,29.07
2019-05-17T07:53:40.018Z,27.27
2019-05-17T07:56:12.624Z,26.53
2019-05-17T07:58:41.610Z,26.90
2019-05-17T08:01:10.505Z,28.23
2019-05-17T08:03:40.598Z,26.63
2019-05-17T08:06:10.530Z,27.00
2019-05-17T08:08:40.935Z,25.30
2019-05-17T08:11:12.258Z,23.27
2019-05-17T08:13:44.280Z,23.17
2019-05-17T08:16:13.188Z,20.33
2019-05-17T08:18:42.155Z,23.00
2019-05-17T08:21:11.050Z,20.57
2019-05-17T08:23:40.222Z,19.87
2019-05-17T08:26:12.231Z,20.17
2019-05-17T08:28:41.142Z,20.13
2019-05-17T08:31:11.702Z,21.07
2019-05-17T08:33:41.871Z,21.50
2019-05-17T08:36:11.303Z,20.90
2019-05-17T08:38:44.752Z,20.07
2019-05-17T08:41:13.749Z,19.67
2019-05-17T08:43:46.822Z,18.77
2019-05-17T08:46:16.541Z,20.57
2019-05-17T08:48:45.576Z,21.13
2019-05-17T08:51:14.546Z,19.40
2019-05-17T08:53:43.903Z,19.23
2019-05-17T08:56:12.870Z,20.57
2019-05-17T08:58:41.787Z,19.47
2019-05-17T09:01:11.353Z,20.50
2019-05-17T09:03:43.411Z,20.40
2019-05-17T09:06:13.764Z,20.03
2019-05-17T09:08:46.022Z,22.50
2019-05-17T09:11:15.059Z,23.93
2019-05-17T09:13:54.645Z,22.27
2019-05-17T09:16:14.596Z,22.80
2019-05-17T09:18:43.529Z,22.63
2019-05-17T09:21:14.022Z,27.70
2019-05-17T09:23:43.130Z,30.07
2019-05-17T09:26:12.180Z,22.70
2019-05-17T09:28:50.683Z,23.17
2019-05-17T09:31:20.437Z,22.53
2019-05-17T09:33:49.765Z,22.90
2019-05-17T09:36:20.460Z,24.53
2019-05-17T09:38:49.673Z,24.07
2019-05-17T09:41:20.029Z,23.30
2019-05-17T09:43:52.172Z,22.87
2019-05-17T09:46:25.038Z,24.20
2019-05-17T09:48:55.042Z,24.27
2019-05-17T09:51:24.188Z,21.03
2019-05-17T09:53:53.223Z,15.43
2019-05-17T09:56:22.244Z,17.40
2019-05-17T09:58:51.148Z,15.60
2019-05-17T10:01:20.295Z,16.03
2019-05-17T10:03:50.641Z,16.10
2019-05-17T10:06:20.213Z,17.30
2019-05-17T10:08:49.606Z,17.33
2019-05-17T10:11:20.284Z,18.23
2019-05-17T10:13:49.942Z,17.77
2019-05-17T10:16:20.301Z,18.93
2019-05-17T10:18:49.504Z,20.30
2019-05-17T10:21:19.880Z,20.77
2019-05-17T10:23:49.677Z,21.30
2019-05-17T10:26:19.762Z,20.30
2019-05-17T10:28:51.431Z,19.67
2019-05-17T10:31:19.925Z,19.43
2019-05-17T10:33:49.527Z,21.67
2019-05-17T10:36:20.183Z,21.07
2019-05-17T10:38:50.211Z,21.77
2019-05-17T10:41:19.848Z,22.57
2019-05-17T10:43:50.120Z,22.20
2019-05-17T10:46:20.773Z,23.77
2019-05-17T10:48:53.378Z,23.87
2019-05-17T10:51:23.303Z,23.80
2019-05-17T10:53:55.448Z,23.03
2019-05-17T10:56:24.452Z,20.97
2019-05-17T10:58:53.384Z,18.37
2019-05-17T11:01:22.404Z,19.50
2019-05-17T11:03:51.607Z,18.83
2019-05-17T11:06:20.750Z,21.23
2019-05-17T11:08:50.182Z,19.43
2019-05-17T11:11:20.118Z,19.87
2019-05-17T11:13:49.396Z,21.23
2019-05-17T11:16:20.495Z,21.33
2019-05-17T11:18:51.325Z,20.30
2019-05-17T11:21:20.288Z,23.17
2019-05-17T11:23:52.635Z,22.73
2019-05-17T11:26:21.610Z,23.37
2019-05-17T11:28:50.579Z,23.87
2019-05-17T11:31:22.592Z,22.50
2019-05-17T11:33:51.559Z,23.77
2019-05-17T11:36:20.515Z,24.97
2019-05-17T11:38:49.531Z,26.33
2019-05-17T11:41:21.611Z,26.47
2019-05-17T11:43:49.133Z,25.30
2019-05-17T11:46:18.072Z,23.93
2019-05-17T11:48:48.132Z,21.57
2019-05-17T11:51:21.086Z,22.90
2019-05-17T11:53:51.318Z,22.90
2019-05-17T11:56:22.820Z,24.00
2019-05-17T11:58:52.157Z,25.20
2019-05-17T12:01:21.243Z,24.80
2019-05-17T12:03:50.682Z,23.70
2019-05-17T12:06:19.696Z,24.03
2019-05-17T12:08:54.824Z,23.53
2019-05-17T12:11:23.841Z,23.27
2019-05-17T12:13:52.739Z,23.00
2019-05-17T12:16:21.732Z,22.90
2019-05-17T12:18:50.646Z,22.97
2019-05-17T12:21:21.543Z,23.87
2019-05-17T12:23:50.523Z,24.10
2019-05-17T12:26:22.799Z,25.40
2019-05-17T12:28:51.723Z,23.37
2019-05-17T12:31:20.670Z,24.33
2019-05-17T12:33:49.708Z,23.93
2019-05-17T12:36:18.609Z,25.50
2019-05-17T12:38:47.795Z,27.83
2019-05-17T12:41:16.684Z,25.67
2019-05-17T12:43:47.692Z,25.50
2019-05-17T12:46:16.767Z,24.37
2019-05-17T12:48:45.818Z,24.03
2019-05-17T12:51:14.871Z,25.57
2019-05-17T12:53:43.936Z,24.70
2019-05-17T12:56:13.964Z,25.27
2019-05-17T12:58:42.960Z,24.50
2019-05-17T13:01:11.962Z,24.37
2019-05-17T13:03:40.897Z,25.67
2019-05-17T13:06:10.103Z,26.00
2019-05-17T13:08:39.369Z,26.53
2019-05-17T13:11:08.244Z,23.73
2019-05-17T13:13:37.329Z,22.87
2019-05-17T13:16:17.646Z,23.37
2019-05-17T13:18:36.906Z,23.00
2019-05-17T13:21:05.850Z,23.83
2019-05-17T13:23:34.777Z,22.30
2019-05-17T13:26:07.088Z,23.57
2019-05-17T13:28:36.113Z,21.83
2019-05-17T13:31:11.265Z,23.47
2019-05-17T13:33:40.445Z,22.57
2019-05-17T13:36:12.592Z,22.23
2019-05-17T13:38:43.824Z,23.87
2019-05-17T13:41:12.753Z,21.30
2019-05-17T13:43:42.222Z,21.87
2019-05-17T13:46:11.205Z,20.83
2019-05-17T13:48:40.664Z,21.50
2019-05-17T13:51:09.627Z,21.57
2019-05-17T13:53:38.501Z,19.20
2019-05-17T13:56:07.544Z,18.70
2019-05-17T13:58:37.529Z,18.73
2019-05-17T14:01:06.612Z,17.20
2019-05-17T14:03:35.530Z,17.70
2019-05-17T14:06:06.830Z,16.33
2019-05-17T14:08:35.920Z,16.37
2019-05-17T14:11:04.844Z,16.30
2019-05-17T14:13:33.751Z,15.70
2019-05-17T14:16:02.651Z,16.80
2019-05-17T14:18:33.773Z,16.70
2019-05-17T14:21:02.156Z,16.07
2019-05-17T14:23:31.229Z,15.37
2019-05-17T14:26:00.186Z,15.70
2019-05-17T14:28:29.121Z,15.83
2019-05-17T14:30:58.135Z,14.33
2019-05-17T14:33:27.131Z,14.40
2019-05-17T14:35:56.037Z,15.17
2019-05-17T14:38:24.988Z,15.33
2019-05-17T14:41:06.431Z,16.33
2019-05-17T14:43:24.585Z,15.10
2019-05-17T14:45:53.504Z,15.47
2019-05-17T14:48:22.625Z,15.07
2019-05-17T14:50:51.719Z,16.40
2019-05-17T14:53:20.745Z,13.23
2019-05-17T14:55:52.261Z,13.47
2019-05-17T14:58:21.237Z,13.13
2019-05-17T15:00:51.332Z,14.00
2019-05-17T15:03:22.679Z,13.67
2019-05-17T15:05:51.581Z,13.83
2019-05-17T15:08:20.637Z,14.43
2019-05-17T15:10:49.628Z,14.67
2019-05-17T15:13:18.601Z,14.57
2019-05-17T15:15:48.074Z,13.23
2019-05-17T15:18:17.409Z,13.40
2019-05-17T15:20:46.580Z,13.40
2019-05-17T15:23:15.998Z,13.50
2019-05-17T15:25:45.130Z,14.70
2019-05-17T15:28:14.331Z,14.37
2019-05-17T15:30:43.613Z,14.23
2019-05-17T15:33:12.642Z,13.43
2019-05-17T15:35:42.136Z,14.90
2019-05-17T15:38:11.397Z,13.43
2019-05-17T15:40:40.391Z,13.83
2019-05-17T15:43:14.382Z,13.30
2019-05-17T15:45:43.330Z,13.63
2019-05-17T15:48:12.363Z,13.93
2019-05-17T15:50:41.410Z,12.97
2019-05-17T15:53:10.454Z,12.97
2019-05-17T15:55:39.576Z,12.50
2019-05-17T15:58:08.420Z,12.90
2019-05-17T16:00:37.436Z,12.13
2019-05-17T16:03:07.594Z,13.33
2019-05-17T16:05:36.589Z,13.80
2019-05-17T16:08:05.626Z,13.13
2019-05-17T16:10:34.623Z,15.30
2019-05-17T16:13:03.811Z,14.30
2019-05-17T16:15:32.776Z,13.07
2019-05-17T16:18:01.707Z,13.33
2019-05-17T16:20:30.628Z,12.30
2019-05-17T16:22:59.636Z,13.23
2019-05-17T16:25:28.556Z,12.43
2019-05-17T16:28:03.018Z,12.30
2019-05-17T16:30:33.295Z,12.80
2019-05-17T16:33:02.283Z,12.83
2019-05-17T16:35:31.558Z,12.87
2019-05-17T16:38:00.558Z,14.53
2019-05-17T16:40:30.379Z,13.93
2019-05-17T16:42:59.488Z,14.07
2019-05-17T16:45:28.473Z,15.03
2019-05-17T16:47:57.446Z,14.83
2019-05-17T16:50:30.039Z,14.43
2019-05-17T16:53:06.103Z,13.77
2019-05-17T16:55:29.464Z,13.63
2019-05-17T16:57:58.482Z,15.37
2019-05-17T17:00:30.055Z,16.40
2019-05-17T17:02:59.046Z,15.47
2019-05-17T17:05:29.031Z,14.37
2019-05-17T17:07:58.041Z,15.10
2019-05-17T17:10:27.160Z,14.50
2019-05-17T17:12:56.263Z,16.23
2019-05-17T17:15:25.333Z,15.27
2019-05-17T17:17:54.440Z,14.30
2019-05-17T17:20:23.385Z,15.53
2019-05-17T17:22:52.462Z,16.30
2019-05-17T17:25:23.497Z,15.17
2019-05-17T17:27:54.874Z,15.70
2019-05-17T17:30:23.924Z,16.17
2019-05-17T17:32:54.802Z,18.23
2019-05-17T17:35:23.908Z,17.20
2019-05-17T17:37:53.173Z,16.70
2019-05-17T17:40:22.840Z,20.40
2019-05-17T17:42:54.957Z,22.33
2019-05-17T17:45:24.908Z,18.87
2019-05-17T17:47:54.128Z,16.93
2019-05-17T17:50:23.426Z,16.33
2019-05-17T17:52:52.708Z,17.93
2019-05-17T17:55:28.316Z,16.67
2019-05-17T17:57:57.827Z,16.23
2019-05-17T18:00:29.692Z,18.57
2019-05-17T18:02:59.524Z,26.37
2019-05-17T18:05:28.982Z,25.13
2019-05-17T18:08:01.506Z,22.10
2019-05-17T18:10:33.898Z,24.10
2019-05-17T18:13:03.144Z,29.40
2019-05-17T18:15:34.829Z,29.10
2019-05-17T18:18:04.115Z,25.43
2019-05-17T18:20:54.754Z,24.73
2019-05-17T18:23:23.783Z,22.40
2019-05-17T18:25:52.928Z,20.43
2019-05-17T18:28:22.043Z,21.33
2019-05-17T18:30:51.189Z,20.30
2019-05-17T18:33:20.206Z,19.80
2019-05-17T18:35:49.330Z,20.93
2019-05-17T18:38:20.140Z,21.20
2019-05-17T18:40:51.742Z,24.23
2019-05-17T18:43:20.885Z,23.27
2019-05-17T18:45:50.238Z,22.93
2019-05-17T18:48:19.335Z,21.73
2019-05-17T18:50:48.284Z,23.23
2019-05-17T18:53:17.492Z,22.73
2019-05-17T18:55:49.880Z,21.93
2019-05-17T18:58:18.925Z,19.57
2019-05-17T19:00:48.201Z,20.33
2019-05-17T19:03:17.092Z,20.57
2019-05-17T19:05:46.103Z,19.17
2019-05-17T19:08:16.288Z,19.53
2019-05-17T19:10:45.396Z,19.43
2019-05-17T19:13:14.576Z,20.83
2019-05-17T19:15:45.696Z,21.30
2019-05-17T19:18:14.900Z,20.60
2019-05-17T19:20:47.200Z,20.47
2019-05-17T19:23:18.845Z,21.33
2019-05-17T19:25:50.972Z,21.93
2019-05-17T19:28:20.080Z,22.63
2019-05-17T19:30:49.070Z,23.50
2019-05-17T19:33:18.275Z,23.57
2019-05-17T19:35:49.845Z,22.97
2019-05-17T19:38:18.935Z,23.57
2019-05-17T19:40:47.986Z,23.83
2019-05-17T19:43:16.912Z,23.30
2019-05-17T19:45:47.191Z,27.27
2019-05-17T19:48:16.225Z,24.70
2019-05-17T19:50:45.323Z,23.37
2019-05-17T19:53:14.383Z,21.20
2019-05-17T19:55:43.440Z,22.97
2019-05-17T19:58:12.676Z,21.90
2019-05-17T20:00:41.642Z,21.00
2019-05-17T20:03:10.695Z,22.27
2019-05-17T20:05:39.694Z,21.27
2019-05-17T20:08:08.704Z,22.07
2019-05-17T20:10:38.873Z,23.67
2019-05-17T20:13:07.776Z,23.73
2019-05-17T20:15:36.840Z,24.90
2019-05-17T20:18:06.020Z,27.93
2019-05-17T20:20:37.454Z,29.90
2019-05-17T20:23:06.733Z,29.93
2019-05-17T20:25:35.833Z,28.10
2019-05-17T20:28:04.773Z,24.80
2019-05-17T20:30:35.258Z,25.43
2019-05-17T20:33:24.137Z,26.47
2019-05-17T20:35:53.186Z,25.23
2019-05-17T20:38:22.241Z,36.90
2019-05-17T20:40:51.595Z,27.23
2019-05-17T20:43:21.269Z,32.93
2019-05-17T20:45:50.207Z,31.60
2019-05-17T20:48:19.295Z,32.03
2019-05-17T20:50:48.164Z,29.77
2019-05-17T20:53:19.255Z,30.87
2019-05-17T20:55:53.785Z,49.37
2019-05-17T20:58:22.694Z,34.43
2019-05-17T21:00:53.341Z,34.20
2019-05-17T21:03:22.418Z,33.03
2019-05-17T21:05:52.460Z,31.13
2019-05-17T21:08:21.506Z,31.67
2019-05-17T21:10:50.494Z,32.80
2019-05-17T21:13:20.366Z,31.67
2019-05-17T21:15:49.392Z,31.23
2019-05-17T21:18:18.417Z,44.70
2019-05-17T21:20:47.342Z,48.40
2019-05-17T21:23:18.487Z,41.50
2019-05-17T21:25:47.995Z,42.17
2019-05-17T21:28:16.958Z,36.97
2019-05-17T21:30:46.182Z,36.43
2019-05-17T21:33:15.152Z,34.33
2019-05-17T21:35:46.786Z,35.27
2019-05-17T21:38:15.804Z,34.40
2019-05-17T21:40:45.041Z,35.07
2019-05-17T21:43:13.968Z,34.93
2019-05-17T21:45:46.249Z,35.27
2019-05-17T21:48:15.451Z,37.67
2019-05-17T21:50:44.364Z,37.23
2019-05-17T21:53:13.513Z,37.63
2019-05-17T21:55:42.611Z,40.33
2019-05-17T21:58:14.867Z,40.13
2019-05-17T22:01:21.803Z,38.80
2019-05-17T22:03:50.758Z,40.27
2019-05-17T22:06:23.111Z,39.17
2019-05-17T22:08:52.161Z,38.20
2019-05-17T22:11:21.136Z,36.17
2019-05-17T22:13:53.278Z,38.67
2019-05-17T22:16:23.351Z,37.30
2019-05-17T22:18:52.341Z,37.03
2019-05-17T22:21:21.287Z,35.87
2019-05-17T22:23:50.333Z,36.00
2019-05-17T22:26:19.210Z,36.43
2019-05-17T22:28:48.161Z,35.83
2019-05-17T22:31:17.151Z,37.57
2019-05-17T22:33:46.169Z,37.60
2019-05-17T22:36:15.065Z,36.57
2019-05-17T22:38:44.372Z,37.67
2019-05-17T22:41:16.330Z,36.47
2019-05-17T22:43:45.257Z,36.53
2019-05-17T22:46:14.290Z,35.17
2019-05-17T22:48:43.270Z,35.77
2019-05-17T22:51:12.204Z,36.37
2019-05-17T22:53:43.884Z,35.27
2019-05-17T22:56:16.335Z,35.10
2019-05-17T22:58:45.276Z,34.17
2019-05-17T23:01:14.285Z,34.00
2019-05-17T23:03:43.210Z,34.27
2019-05-17T23:06:12.201Z,35.67
2019-05-17T23:08:41.254Z,35.80
2019-05-17T23:11:10.187Z,38.37
2019-05-17T23:13:39.286Z,41.60
2019-05-17T23:16:11.112Z,43.13
2019-05-17T23:18:42.847Z,41.07
2019-05-17T23:21:11.833Z,37.93
2019-05-17T23:23:41.906Z,37.43
2019-05-17T23:26:10.844Z,38.47
2019-05-17T23:28:39.882Z,40.10
2019-05-17T23:31:09.505Z,40.73
2019-05-17T23:33:40.711Z,40.90
2019-05-17T23:36:09.814Z,39.77
2019-05-17T23:38:39.591Z,39.67
2019-05-17T23:41:08.535Z,38.23
2019-05-17T23:43:37.643Z,39.53
2019-05-17T23:46:06.679Z,39.87
2019-05-17T23:48:35.929Z,37.90
2019-05-17T23:51:05.037Z,38.27
2019-05-17T23:53:34.050Z,38.50
2019-05-17T23:56:04.513Z,39.97
2019-05-17T23:58:33.428Z,40.07
